sensor_id;sensor_type;location;lat;lon;timestamp;P1;durP1;ratioP1;P2;durP2;ratioP2
2486;SDS011;1254;49.144;8.212;2023-02-20T00:00:40;6.30;;;3.17;;
2486;SDS011;1254;49.144;8.212;2023-02-20T00:03:08;7.97;;;3.30;;
2486;SDS011;1254;49.144;8.212;2023-02-20T00:05:36;7.57;;;3.55;;
2486;SDS011;1254;49.144;8.212;2023-02-20T00:08:05;9.02;;;3.35;;
2486;SDS011;1254;49.144;8.212;2023-02-20T00:10:33;10.68;;;4.38;;
2486;SDS011;1254;49.144;8.212;2023-02-20T00:13:01;16.95;;;5.78;;
2486;SDS011;1254;49.144;8.212;2023-02-20T00:15:31;7.80;;;4.07;;
2486;SDS011;1254;49.144;8.212;2023-02-20T00:17:59;11.10;;;4.47;;
2486;SDS011;1254;49.144;8.212;2023-02-20T00:20:27;10.60;;;4.88;;
2486;SDS011;1254;49.144;8.212;2023-02-20T00:22:57;9.77;;;5.25;;
2486;SDS011;1254;49.144;8.212;2023-02-20T00:25:25;11.23;;;5.70;;
2486;SDS011;1254;49.144;8.212;2023-02-20T00:27:53;9.00;;;5.72;;
2486;SDS011;1254;49.144;8.212;2023-02-20T00:30:22;12.60;;;5.72;;
2486;SDS011;1254;49.144;8.212;2023-02-20T00:32:53;7.57;;;3.80;;
2486;SDS011;1254;49.144;8.212;2023-02-20T00:35:22;9.48;;;4.35;;
2486;SDS011;1254;49.144;8.212;2023-02-20T00:38:00;19.33;;;4.45;;
2486;SDS011;1254;49.144;8.212;2023-02-20T00:40:28;3.40;;;2.95;;
2486;SDS011;1254;49.144;8.212;2023-02-20T00:42:56;4.60;;;3.42;;
2486;SDS011;1254;49.144;8.212;2023-02-20T00:45:26;5.22;;;3.45;;
2486;SDS011;1254;49.144;8.212;2023-02-20T00:47:56;9.63;;;4.63;;
2486;SDS011;1254;49.144;8.212;2023-02-20T00:50:24;10.23;;;4.13;;
2486;SDS011;1254;49.144;8.212;2023-02-20T00:52:52;8.65;;;4.00;;
2486;SDS011;1254;49.144;8.212;2023-02-20T00:55:21;7.80;;;3.35;;
2486;SDS011;1254;49.144;8.212;2023-02-20T00:57:49;7.18;;;3.70;;
2486;SDS011;1254;49.144;8.212;2023-02-20T01:00:18;7.25;;;4.28;;
2486;SDS011;1254;49.144;8.212;2023-02-20T01:02:47;4.65;;;3.58;;
2486;SDS011;1254;49.144;8.212;2023-02-20T01:05:17;5.20;;;4.70;;
2486;SDS011;1254;49.144;8.212;2023-02-20T01:07:46;6.90;;;3.75;;
2486;SDS011;1254;49.144;8.212;2023-02-20T01:10:14;5.72;;;3.60;;
2486;SDS011;1254;49.144;8.212;2023-02-20T01:12:42;5.82;;;3.83;;
2486;SDS011;1254;49.144;8.212;2023-02-20T01:15:13;11.88;;;4.68;;
2486;SDS011;1254;49.144;8.212;2023-02-20T01:17:41;4.47;;;3.90;;
2486;SDS011;1254;49.144;8.212;2023-02-20T01:20:10;8.00;;;4.05;;
2486;SDS011;1254;49.144;8.212;2023-02-20T01:22:40;9.48;;;4.57;;
2486;SDS011;1254;49.144;8.212;2023-02-20T01:25:09;5.13;;;4.20;;
2486;SDS011;1254;49.144;8.212;2023-02-20T01:27:38;8.10;;;4.53;;
2486;SDS011;1254;49.144;8.212;2023-02-20T01:30:06;8.27;;;4.32;;
2486;SDS011;1254;49.144;8.212;2023-02-20T01:32:35;8.13;;;4.97;;
2486;SDS011;1254;49.144;8.212;2023-02-20T01:35:03;7.18;;;4.95;;
2486;SDS011;1254;49.144;8.212;2023-02-20T01:37:33;9.48;;;5.00;;
2486;SDS011;1254;49.144;8.212;2023-02-20T01:40:03;12.15;;;5.60;;
2486;SDS011;1254;49.144;8.212;2023-02-20T01:42:32;15.70;;;5.15;;
2486;SDS011;1254;49.144;8.212;2023-02-20T01:45:13;11.68;;;4.60;;
2486;SDS011;1254;49.144;8.212;2023-02-20T01:47:42;9.55;;;5.07;;
2486;SDS011;1254;49.144;8.212;2023-02-20T01:50:10;7.05;;;4.97;;
2486;SDS011;1254;49.144;8.212;2023-02-20T01:52:39;11.02;;;5.43;;
2486;SDS011;1254;49.144;8.212;2023-02-20T01:55:10;10.07;;;5.05;;
2486;SDS011;1254;49.144;8.212;2023-02-20T01:57:40;9.27;;;4.28;;
2486;SDS011;1254;49.144;8.212;2023-02-20T02:00:11;6.00;;;4.30;;
2486;SDS011;1254;49.144;8.212;2023-02-20T02:02:43;7.75;;;4.10;;
2486;SDS011;1254;49.144;8.212;2023-02-20T02:05:12;10.43;;;5.72;;
2486;SDS011;1254;49.144;8.212;2023-02-20T02:07:40;10.60;;;4.70;;
2486;SDS011;1254;49.144;8.212;2023-02-20T02:10:11;6.00;;;4.38;;
2486;SDS011;1254;49.144;8.212;2023-02-20T02:12:40;10.38;;;5.20;;
2486;SDS011;1254;49.144;8.212;2023-02-20T02:15:12;8.80;;;4.80;;
2486;SDS011;1254;49.144;8.212;2023-02-20T02:17:49;8.40;;;4.93;;
2486;SDS011;1254;49.144;8.212;2023-02-20T02:23:26;9.27;;;4.65;;
2486;SDS011;1254;49.144;8.212;2023-02-20T02:26:01;11.43;;;5.40;;
2486;SDS011;1254;49.144;8.212;2023-02-20T02:28:50;7.07;;;5.18;;
2486;SDS011;1254;49.144;8.212;2023-02-20T02:31:29;10.82;;;4.55;;
2486;SDS011;1254;49.144;8.212;2023-02-20T02:34:04;7.60;;;5.13;;
2486;SDS011;1254;49.144;8.212;2023-02-20T02:36:41;8.20;;;5.60;;
2486;SDS011;1254;49.144;8.212;2023-02-20T02:39:15;12.90;;;5.30;;
2486;SDS011;1254;49.144;8.212;2023-02-20T02:41:49;9.75;;;5.10;;
2486;SDS011;1254;49.144;8.212;2023-02-20T02:44:20;11.23;;;6.18;;
2486;SDS011;1254;49.144;8.212;2023-02-20T02:46:53;9.43;;;5.78;;
2486;SDS011;1254;49.144;8.212;2023-02-20T02:49:23;5.78;;;5.25;;
2486;SDS011;1254;49.144;8.212;2023-02-20T02:51:54;14.85;;;6.15;;
2486;SDS011;1254;49.144;8.212;2023-02-20T02:54:26;13.73;;;4.80;;
2486;SDS011;1254;49.144;8.212;2023-02-20T02:59:37;11.30;;;5.60;;
2486;SDS011;1254;49.144;8.212;2023-02-20T03:02:08;12.82;;;6.30;;
2486;SDS011;1254;49.144;8.212;2023-02-20T03:04:38;11.45;;;5.95;;
2486;SDS011;1254;49.144;8.212;2023-02-20T03:07:09;9.52;;;6.13;;
2486;SDS011;1254;49.144;8.212;2023-02-20T03:09:40;13.65;;;6.05;;
2486;SDS011;1254;49.144;8.212;2023-02-20T03:12:09;12.98;;;6.55;;
2486;SDS011;1254;49.144;8.212;2023-02-20T03:14:40;13.10;;;6.65;;
2486;SDS011;1254;49.144;8.212;2023-02-20T03:17:27;22.48;;;7.20;;
2486;SDS011;1254;49.144;8.212;2023-02-20T03:19:57;16.70;;;10.20;;
2486;SDS011;1254;49.144;8.212;2023-02-20T03:22:29;25.23;;;10.10;;
2486;SDS011;1254;49.144;8.212;2023-02-20T03:25:00;15.50;;;7.80;;
2486;SDS011;1254;49.144;8.212;2023-02-20T03:27:34;16.05;;;8.10;;
2486;SDS011;1254;49.144;8.212;2023-02-20T03:30:07;13.10;;;7.10;;
2486;SDS011;1254;49.144;8.212;2023-02-20T03:32:36;13.68;;;7.47;;
2486;SDS011;1254;49.144;8.212;2023-02-20T03:35:23;16.65;;;10.20;;
2486;SDS011;1254;49.144;8.212;2023-02-20T03:38:12;20.25;;;9.07;;
2486;SDS011;1254;49.144;8.212;2023-02-20T03:40:58;13.68;;;8.13;;
2486;SDS011;1254;49.144;8.212;2023-02-20T03:43:46;16.42;;;8.32;;
2486;SDS011;1254;49.144;8.212;2023-02-20T03:46:16;13.05;;;8.52;;
2486;SDS011;1254;49.144;8.212;2023-02-20T03:48:49;14.55;;;7.88;;
2486;SDS011;1254;49.144;8.212;2023-02-20T03:51:19;15.18;;;7.55;;
2486;SDS011;1254;49.144;8.212;2023-02-20T03:53:54;12.27;;;7.80;;
2486;SDS011;1254;49.144;8.212;2023-02-20T03:56:25;10.85;;;8.02;;
2486;SDS011;1254;49.144;8.212;2023-02-20T03:58:54;17.00;;;9.80;;
2486;SDS011;1254;49.144;8.212;2023-02-20T04:04:51;20.02;;;11.98;;
2486;SDS011;1254;49.144;8.212;2023-02-20T04:07:23;17.92;;;9.32;;
2486;SDS011;1254;49.144;8.212;2023-02-20T04:10:29;18.30;;;7.55;;
2486;SDS011;1254;49.144;8.212;2023-02-20T04:13:17;9.35;;;6.78;;
2486;SDS011;1254;49.144;8.212;2023-02-20T04:16:01;13.55;;;7.95;;
2486;SDS011;1254;49.144;8.212;2023-02-20T04:19:00;12.63;;;7.30;;
2486;SDS011;1254;49.144;8.212;2023-02-20T04:21:47;15.45;;;6.65;;
2486;SDS011;1254;49.144;8.212;2023-02-20T04:24:39;15.25;;;7.72;;
2486;SDS011;1254;49.144;8.212;2023-02-20T04:27:10;15.68;;;7.85;;
2486;SDS011;1254;49.144;8.212;2023-02-20T04:29:46;12.20;;;8.50;;
2486;SDS011;1254;49.144;8.212;2023-02-20T04:32:14;9.90;;;6.93;;
2486;SDS011;1254;49.144;8.212;2023-02-20T04:34:43;22.45;;;8.57;;
2486;SDS011;1254;49.144;8.212;2023-02-20T04:37:12;11.88;;;7.55;;
2486;SDS011;1254;49.144;8.212;2023-02-20T04:39:42;13.48;;;7.82;;
2486;SDS011;1254;49.144;8.212;2023-02-20T04:42:14;13.18;;;7.55;;
2486;SDS011;1254;49.144;8.212;2023-02-20T04:44:42;12.05;;;6.85;;
2486;SDS011;1254;49.144;8.212;2023-02-20T04:47:13;14.23;;;7.20;;
2486;SDS011;1254;49.144;8.212;2023-02-20T04:49:42;11.73;;;7.30;;
2486;SDS011;1254;49.144;8.212;2023-02-20T04:52:14;14.23;;;7.13;;
2486;SDS011;1254;49.144;8.212;2023-02-20T04:54:45;14.55;;;8.52;;
2486;SDS011;1254;49.144;8.212;2023-02-20T04:57:16;12.52;;;7.78;;
2486;SDS011;1254;49.144;8.212;2023-02-20T04:59:45;11.18;;;6.70;;
2486;SDS011;1254;49.144;8.212;2023-02-20T05:02:16;13.05;;;7.18;;
2486;SDS011;1254;49.144;8.212;2023-02-20T05:04:44;12.85;;;6.00;;
2486;SDS011;1254;49.144;8.212;2023-02-20T05:07:13;17.85;;;6.93;;
2486;SDS011;1254;49.144;8.212;2023-02-20T05:09:43;12.15;;;7.75;;
2486;SDS011;1254;49.144;8.212;2023-02-20T05:12:11;13.00;;;7.50;;
2486;SDS011;1254;49.144;8.212;2023-02-20T05:14:41;11.75;;;7.30;;
2486;SDS011;1254;49.144;8.212;2023-02-20T05:17:09;10.63;;;5.60;;
2486;SDS011;1254;49.144;8.212;2023-02-20T05:19:37;12.35;;;7.07;;
2486;SDS011;1254;49.144;8.212;2023-02-20T05:22:07;16.23;;;7.25;;
2486;SDS011;1254;49.144;8.212;2023-02-20T05:24:44;16.42;;;7.15;;
2486;SDS011;1254;49.144;8.212;2023-02-20T05:27:13;8.55;;;7.13;;
2486;SDS011;1254;49.144;8.212;2023-02-20T05:29:46;14.32;;;7.60;;
2486;SDS011;1254;49.144;8.212;2023-02-20T05:32:14;10.43;;;6.97;;
2486;SDS011;1254;49.144;8.212;2023-02-20T05:34:43;17.05;;;8.55;;
2486;SDS011;1254;49.144;8.212;2023-02-20T05:37:12;12.63;;;6.57;;
2486;SDS011;1254;49.144;8.212;2023-02-20T05:39:41;11.85;;;7.15;;
2486;SDS011;1254;49.144;8.212;2023-02-20T05:42:09;11.13;;;7.32;;
2486;SDS011;1254;49.144;8.212;2023-02-20T05:44:37;15.20;;;8.15;;
2486;SDS011;1254;49.144;8.212;2023-02-20T05:47:07;15.70;;;7.72;;
2486;SDS011;1254;49.144;8.212;2023-02-20T05:49:35;12.27;;;7.07;;
2486;SDS011;1254;49.144;8.212;2023-02-20T05:52:04;9.95;;;7.22;;
2486;SDS011;1254;49.144;8.212;2023-02-20T05:54:36;11.07;;;7.63;;
2486;SDS011;1254;49.144;8.212;2023-02-20T05:57:04;12.32;;;7.25;;
2486;SDS011;1254;49.144;8.212;2023-02-20T05:59:32;13.63;;;7.22;;
2486;SDS011;1254;49.144;8.212;2023-02-20T06:02:00;18.92;;;6.80;;
2486;SDS011;1254;49.144;8.212;2023-02-20T06:04:30;16.77;;;7.32;;
2486;SDS011;1254;49.144;8.212;2023-02-20T06:06:58;11.05;;;6.65;;
2486;SDS011;1254;49.144;8.212;2023-02-20T06:09:26;14.18;;;7.25;;
2486;SDS011;1254;49.144;8.212;2023-02-20T06:11:55;15.55;;;7.63;;
2486;SDS011;1254;49.144;8.212;2023-02-20T06:14:24;11.63;;;6.30;;
2486;SDS011;1254;49.144;8.212;2023-02-20T06:16:53;11.15;;;7.22;;
2486;SDS011;1254;49.144;8.212;2023-02-20T06:19:23;15.07;;;8.38;;
2486;SDS011;1254;49.144;8.212;2023-02-20T06:21:53;12.48;;;7.68;;
2486;SDS011;1254;49.144;8.212;2023-02-20T06:24:23;16.27;;;8.15;;
2486;SDS011;1254;49.144;8.212;2023-02-20T06:26:51;14.60;;;7.50;;
2486;SDS011;1254;49.144;8.212;2023-02-20T06:29:20;11.95;;;6.80;;
2486;SDS011;1254;49.144;8.212;2023-02-20T06:31:48;14.07;;;8.52;;
2486;SDS011;1254;49.144;8.212;2023-02-20T06:34:16;13.45;;;7.05;;
2486;SDS011;1254;49.144;8.212;2023-02-20T06:36:45;17.88;;;7.75;;
2486;SDS011;1254;49.144;8.212;2023-02-20T06:39:14;9.88;;;6.65;;
2486;SDS011;1254;49.144;8.212;2023-02-20T06:41:44;12.15;;;6.75;;
2486;SDS011;1254;49.144;8.212;2023-02-20T06:44:12;12.10;;;7.60;;
2486;SDS011;1254;49.144;8.212;2023-02-20T06:46:40;12.18;;;6.50;;
2486;SDS011;1254;49.144;8.212;2023-02-20T06:49:09;10.10;;;7.20;;
2486;SDS011;1254;49.144;8.212;2023-02-20T06:51:37;15.00;;;7.25;;
2486;SDS011;1254;49.144;8.212;2023-02-20T06:54:06;16.92;;;7.32;;
2486;SDS011;1254;49.144;8.212;2023-02-20T06:56:36;14.70;;;8.15;;
2486;SDS011;1254;49.144;8.212;2023-02-20T06:59:05;15.98;;;8.27;;
2486;SDS011;1254;49.144;8.212;2023-02-20T07:01:36;11.07;;;7.45;;
2486;SDS011;1254;49.144;8.212;2023-02-20T07:04:05;10.30;;;7.90;;
2486;SDS011;1254;49.144;8.212;2023-02-20T07:06:34;11.73;;;8.05;;
2486;SDS011;1254;49.144;8.212;2023-02-20T07:09:03;16.77;;;7.70;;
2486;SDS011;1254;49.144;8.212;2023-02-20T07:11:31;12.70;;;7.28;;
2486;SDS011;1254;49.144;8.212;2023-02-20T07:14:00;11.27;;;7.50;;
2486;SDS011;1254;49.144;8.212;2023-02-20T07:16:29;12.27;;;7.93;;
2486;SDS011;1254;49.144;8.212;2023-02-20T07:18:57;14.93;;;8.40;;
2486;SDS011;1254;49.144;8.212;2023-02-20T07:21:30;16.83;;;7.63;;
2486;SDS011;1254;49.144;8.212;2023-02-20T07:30:13;15.52;;;7.60;;
2486;SDS011;1254;49.144;8.212;2023-02-20T07:32:42;19.52;;;7.20;;
2486;SDS011;1254;49.144;8.212;2023-02-20T07:35:19;13.45;;;8.05;;
2486;SDS011;1254;49.144;8.212;2023-02-20T07:38:33;13.00;;;7.50;;
2486;SDS011;1254;49.144;8.212;2023-02-20T07:41:13;20.40;;;8.77;;
2486;SDS011;1254;49.144;8.212;2023-02-20T07:43:49;11.40;;;7.50;;
2486;SDS011;1254;49.144;8.212;2023-02-20T07:46:27;12.75;;;8.13;;
2486;SDS011;1254;49.144;8.212;2023-02-20T07:48:59;12.82;;;7.18;;
2486;SDS011;1254;49.144;8.212;2023-02-20T07:51:27;14.27;;;7.57;;
2486;SDS011;1254;49.144;8.212;2023-02-20T07:53:55;14.63;;;8.75;;
2486;SDS011;1254;49.144;8.212;2023-02-20T07:56:23;11.70;;;6.65;;
2486;SDS011;1254;49.144;8.212;2023-02-20T07:58:51;11.40;;;6.75;;
2486;SDS011;1254;49.144;8.212;2023-02-20T08:01:19;14.32;;;6.97;;
2486;SDS011;1254;49.144;8.212;2023-02-20T08:03:49;9.80;;;6.95;;
2486;SDS011;1254;49.144;8.212;2023-02-20T08:06:17;11.25;;;7.28;;
2486;SDS011;1254;49.144;8.212;2023-02-20T08:08:46;15.63;;;8.25;;
2486;SDS011;1254;49.144;8.212;2023-02-20T08:11:15;11.90;;;7.07;;
2486;SDS011;1254;49.144;8.212;2023-02-20T08:13:43;13.63;;;7.15;;
2486;SDS011;1254;49.144;8.212;2023-02-20T08:16:11;11.70;;;6.70;;
2486;SDS011;1254;49.144;8.212;2023-02-20T08:18:39;12.15;;;7.30;;
2486;SDS011;1254;49.144;8.212;2023-02-20T08:21:08;14.93;;;7.75;;
2486;SDS011;1254;49.144;8.212;2023-02-20T08:23:36;9.82;;;6.72;;
2486;SDS011;1254;49.144;8.212;2023-02-20T08:26:04;13.52;;;6.88;;
2486;SDS011;1254;49.144;8.212;2023-02-20T08:28:32;12.95;;;7.57;;
2486;SDS011;1254;49.144;8.212;2023-02-20T08:31:00;12.43;;;6.57;;
2486;SDS011;1254;49.144;8.212;2023-02-20T08:33:28;12.43;;;7.10;;
2486;SDS011;1254;49.144;8.212;2023-02-20T08:35:57;14.57;;;7.55;;
2486;SDS011;1254;49.144;8.212;2023-02-20T08:38:27;11.30;;;6.57;;
2486;SDS011;1254;49.144;8.212;2023-02-20T08:40:56;11.88;;;6.20;;
2486;SDS011;1254;49.144;8.212;2023-02-20T08:43:28;10.85;;;6.38;;
2486;SDS011;1254;49.144;8.212;2023-02-20T08:46:01;16.25;;;6.43;;
2486;SDS011;1254;49.144;8.212;2023-02-20T08:48:44;14.85;;;6.57;;
2486;SDS011;1254;49.144;8.212;2023-02-20T08:51:24;9.15;;;5.15;;
2486;SDS011;1254;49.144;8.212;2023-02-20T08:53:58;11.27;;;5.05;;
2486;SDS011;1254;49.144;8.212;2023-02-20T08:56:26;10.43;;;6.00;;
2486;SDS011;1254;49.144;8.212;2023-02-20T08:58:55;9.20;;;4.82;;
2486;SDS011;1254;49.144;8.212;2023-02-20T09:01:23;11.93;;;6.43;;
2486;SDS011;1254;49.144;8.212;2023-02-20T09:03:51;14.43;;;5.55;;
2486;SDS011;1254;49.144;8.212;2023-02-20T09:06:20;15.52;;;6.10;;
2486;SDS011;1254;49.144;8.212;2023-02-20T09:08:51;11.02;;;5.32;;
2486;SDS011;1254;49.144;8.212;2023-02-20T09:11:20;12.68;;;5.88;;
2486;SDS011;1254;49.144;8.212;2023-02-20T09:13:51;6.65;;;4.50;;
2486;SDS011;1254;49.144;8.212;2023-02-20T09:16:20;11.23;;;4.85;;
2486;SDS011;1254;49.144;8.212;2023-02-20T09:18:49;8.38;;;4.65;;
2486;SDS011;1254;49.144;8.212;2023-02-20T09:21:19;6.40;;;4.97;;
2486;SDS011;1254;49.144;8.212;2023-02-20T09:23:47;5.35;;;4.53;;
2486;SDS011;1254;49.144;8.212;2023-02-20T09:26:15;4.75;;;4.32;;
2486;SDS011;1254;49.144;8.212;2023-02-20T09:28:46;7.10;;;4.53;;
2486;SDS011;1254;49.144;8.212;2023-02-20T09:31:19;9.27;;;4.80;;
2486;SDS011;1254;49.144;8.212;2023-02-20T09:33:47;5.95;;;4.55;;
2486;SDS011;1254;49.144;8.212;2023-02-20T09:36:15;9.02;;;4.93;;
2486;SDS011;1254;49.144;8.212;2023-02-20T09:38:43;10.23;;;5.45;;
2486;SDS011;1254;49.144;8.212;2023-02-20T09:41:12;8.63;;;4.45;;
2486;SDS011;1254;49.144;8.212;2023-02-20T09:43:48;7.07;;;5.55;;
2486;SDS011;1254;49.144;8.212;2023-02-20T09:46:22;9.02;;;4.40;;
2486;SDS011;1254;49.144;8.212;2023-02-20T09:48:53;10.88;;;4.45;;
2486;SDS011;1254;49.144;8.212;2023-02-20T09:51:27;9.55;;;4.38;;
2486;SDS011;1254;49.144;8.212;2023-02-20T09:53:56;13.80;;;4.93;;
2486;SDS011;1254;49.144;8.212;2023-02-20T09:56:25;6.88;;;4.40;;
2486;SDS011;1254;49.144;8.212;2023-02-20T09:58:57;7.15;;;5.20;;
2486;SDS011;1254;49.144;8.212;2023-02-20T10:01:27;8.52;;;5.32;;
2486;SDS011;1254;49.144;8.212;2023-02-20T10:03:57;8.23;;;5.15;;
2486;SDS011;1254;49.144;8.212;2023-02-20T10:06:27;6.40;;;5.47;;
2486;SDS011;1254;49.144;8.212;2023-02-20T10:08:55;6.15;;;4.95;;
2486;SDS011;1254;49.144;8.212;2023-02-20T10:11:36;10.85;;;5.40;;
2486;SDS011;1254;49.144;8.212;2023-02-20T10:14:11;6.53;;;5.57;;
2486;SDS011;1254;49.144;8.212;2023-02-20T10:16:41;7.00;;;5.82;;
2486;SDS011;1254;49.144;8.212;2023-02-20T10:19:13;11.85;;;5.85;;
2486;SDS011;1254;49.144;8.212;2023-02-20T10:21:46;9.38;;;5.78;;
2486;SDS011;1254;49.144;8.212;2023-02-20T10:24:33;10.82;;;6.28;;
2486;SDS011;1254;49.144;8.212;2023-02-20T10:27:11;9.55;;;4.85;;
2486;SDS011;1254;49.144;8.212;2023-02-20T10:29:44;12.52;;;6.32;;
2486;SDS011;1254;49.144;8.212;2023-02-20T10:32:14;9.60;;;5.63;;
2486;SDS011;1254;49.144;8.212;2023-02-20T10:34:48;7.97;;;5.03;;
2486;SDS011;1254;49.144;8.212;2023-02-20T10:37:19;7.35;;;4.72;;
2486;SDS011;1254;49.144;8.212;2023-02-20T10:39:49;8.45;;;5.07;;
2486;SDS011;1254;49.144;8.212;2023-02-20T10:42:20;7.50;;;5.70;;
2486;SDS011;1254;49.144;8.212;2023-02-20T10:45:11;8.10;;;5.00;;
2486;SDS011;1254;49.144;8.212;2023-02-20T10:48:11;8.68;;;4.75;;
2486;SDS011;1254;49.144;8.212;2023-02-20T10:50:42;6.05;;;5.43;;
2486;SDS011;1254;49.144;8.212;2023-02-20T10:53:15;8.70;;;5.87;;
2486;SDS011;1254;49.144;8.212;2023-02-20T10:55:47;9.20;;;5.43;;
2486;SDS011;1254;49.144;8.212;2023-02-20T10:58:18;16.00;;;6.30;;
2486;SDS011;1254;49.144;8.212;2023-02-20T11:00:50;8.00;;;5.30;;
2486;SDS011;1254;49.144;8.212;2023-02-20T11:03:21;8.17;;;5.30;;
2486;SDS011;1254;49.144;8.212;2023-02-20T11:05:50;14.10;;;6.60;;
2486;SDS011;1254;49.144;8.212;2023-02-20T11:08:20;11.33;;;5.77;;
2486;SDS011;1254;49.144;8.212;2023-02-20T11:10:49;13.23;;;5.67;;
2486;SDS011;1254;49.144;8.212;2023-02-20T11:13:22;7.83;;;5.53;;
2486;SDS011;1254;49.144;8.212;2023-02-20T11:15:52;8.90;;;6.03;;
2486;SDS011;1254;49.144;8.212;2023-02-20T11:18:22;10.23;;;6.37;;
2486;SDS011;1254;49.144;8.212;2023-02-20T11:20:53;11.43;;;6.53;;
2486;SDS011;1254;49.144;8.212;2023-02-20T11:23:32;9.33;;;6.90;;
2486;SDS011;1254;49.144;8.212;2023-02-20T11:28:56;14.17;;;6.30;;
2486;SDS011;1254;49.144;8.212;2023-02-20T11:31:26;10.33;;;7.03;;
2486;SDS011;1254;49.144;8.212;2023-02-20T11:34:01;10.00;;;6.20;;
2486;SDS011;1254;49.144;8.212;2023-02-20T11:37:20;7.90;;;6.73;;
2486;SDS011;1254;49.144;8.212;2023-02-20T11:39:52;7.73;;;6.00;;
2486;SDS011;1254;49.144;8.212;2023-02-20T11:42:23;12.40;;;6.20;;
2486;SDS011;1254;49.144;8.212;2023-02-20T11:45:04;7.27;;;6.57;;
2486;SDS011;1254;49.144;8.212;2023-02-20T11:48:13;11.70;;;7.13;;
2486;SDS011;1254;49.144;8.212;2023-02-20T11:50:42;7.67;;;6.60;;
2486;SDS011;1254;49.144;8.212;2023-02-20T11:53:18;7.83;;;6.53;;
2486;SDS011;1254;49.144;8.212;2023-02-20T11:55:46;13.40;;;7.23;;
2486;SDS011;1254;49.144;8.212;2023-02-20T11:58:21;10.23;;;7.40;;
2486;SDS011;1254;49.144;8.212;2023-02-20T12:00:52;9.73;;;7.07;;
2486;SDS011;1254;49.144;8.212;2023-02-20T12:03:22;8.83;;;7.47;;
2486;SDS011;1254;49.144;8.212;2023-02-20T12:05:51;11.50;;;7.40;;
2486;SDS011;1254;49.144;8.212;2023-02-20T12:08:22;7.43;;;6.67;;
2486;SDS011;1254;49.144;8.212;2023-02-20T12:10:55;9.57;;;6.80;;
2486;SDS011;1254;49.144;8.212;2023-02-20T12:13:26;12.97;;;8.10;;
2486;SDS011;1254;49.144;8.212;2023-02-20T12:15:57;8.97;;;7.73;;
2486;SDS011;1254;49.144;8.212;2023-02-20T12:18:32;11.17;;;7.90;;
2486;SDS011;1254;49.144;8.212;2023-02-20T12:21:13;9.07;;;8.17;;
2486;SDS011;1254;49.144;8.212;2023-02-20T12:23:45;7.37;;;6.87;;
2486;SDS011;1254;49.144;8.212;2023-02-20T12:26:18;9.03;;;7.30;;
2486;SDS011;1254;49.144;8.212;2023-02-20T12:28:52;20.17;;;9.03;;
2486;SDS011;1254;49.144;8.212;2023-02-20T12:31:25;13.50;;;8.83;;
2486;SDS011;1254;49.144;8.212;2023-02-20T12:34:08;8.60;;;7.80;;
2486;SDS011;1254;49.144;8.212;2023-02-20T12:36:38;8.83;;;8.00;;
2486;SDS011;1254;49.144;8.212;2023-02-20T12:39:12;10.70;;;9.73;;
2486;SDS011;1254;49.144;8.212;2023-02-20T12:41:48;9.93;;;8.10;;
2486;SDS011;1254;49.144;8.212;2023-02-20T12:44:23;15.43;;;8.20;;
2486;SDS011;1254;49.144;8.212;2023-02-20T12:46:57;8.57;;;7.77;;
2486;SDS011;1254;49.144;8.212;2023-02-20T12:52:20;12.37;;;8.27;;
2486;SDS011;1254;49.144;8.212;2023-02-20T12:54:54;10.80;;;8.83;;
2486;SDS011;1254;49.144;8.212;2023-02-20T12:57:25;10.73;;;9.83;;
2486;SDS011;1254;49.144;8.212;2023-02-20T12:59:57;9.83;;;8.93;;
2486;SDS011;1254;49.144;8.212;2023-02-20T13:02:27;12.80;;;9.93;;
2486;SDS011;1254;49.144;8.212;2023-02-20T13:04:57;10.17;;;8.13;;
2486;SDS011;1254;49.144;8.212;2023-02-20T13:07:28;10.57;;;8.83;;
2486;SDS011;1254;49.144;8.212;2023-02-20T13:10:02;12.03;;;9.47;;
2486;SDS011;1254;49.144;8.212;2023-02-20T13:12:31;10.77;;;9.77;;
2486;SDS011;1254;49.144;8.212;2023-02-20T13:15:02;9.50;;;8.80;;
2486;SDS011;1254;49.144;8.212;2023-02-20T13:17:36;9.80;;;9.03;;
2486;SDS011;1254;49.144;8.212;2023-02-20T13:20:09;9.40;;;8.37;;
2486;SDS011;1254;49.144;8.212;2023-02-20T13:22:43;9.53;;;8.63;;
2486;SDS011;1254;49.144;8.212;2023-02-20T13:25:34;9.60;;;8.63;;
2486;SDS011;1254;49.144;8.212;2023-02-20T13:28:07;8.80;;;8.10;;
2486;SDS011;1254;49.144;8.212;2023-02-20T13:30:40;12.90;;;8.20;;
2486;SDS011;1254;49.144;8.212;2023-02-20T13:33:12;9.33;;;8.40;;
2486;SDS011;1254;49.144;8.212;2023-02-20T13:35:46;9.60;;;9.00;;
2486;SDS011;1254;49.144;8.212;2023-02-20T13:38:19;9.37;;;8.57;;
2486;SDS011;1254;49.144;8.212;2023-02-20T13:41:01;11.73;;;8.80;;
2486;SDS011;1254;49.144;8.212;2023-02-20T13:43:30;10.17;;;9.27;;
2486;SDS011;1254;49.144;8.212;2023-02-20T13:46:12;9.20;;;8.60;;
2486;SDS011;1254;49.144;8.212;2023-02-20T13:48:45;10.13;;;9.13;;
2486;SDS011;1254;49.144;8.212;2023-02-20T13:51:30;9.57;;;8.67;;
2486;SDS011;1254;49.144;8.212;2023-02-20T13:56:48;8.20;;;7.60;;
2486;SDS011;1254;49.144;8.212;2023-02-20T13:59:19;8.07;;;7.57;;
2486;SDS011;1254;49.144;8.212;2023-02-20T14:01:54;8.57;;;8.13;;
2486;SDS011;1254;49.144;8.212;2023-02-20T14:04:22;8.93;;;8.30;;
2486;SDS011;1254;49.144;8.212;2023-02-20T14:06:51;8.77;;;8.00;;
2486;SDS011;1254;49.144;8.212;2023-02-20T14:09:20;9.23;;;8.50;;
2486;SDS011;1254;49.144;8.212;2023-02-20T14:11:51;8.73;;;8.20;;
2486;SDS011;1254;49.144;8.212;2023-02-20T14:14:23;8.50;;;8.00;;
2486;SDS011;1254;49.144;8.212;2023-02-20T14:17:01;8.20;;;7.80;;
2486;SDS011;1254;49.144;8.212;2023-02-20T14:19:30;9.10;;;8.50;;
2486;SDS011;1254;49.144;8.212;2023-02-20T14:22:12;8.00;;;7.50;;
2486;SDS011;1254;49.144;8.212;2023-02-20T14:24:40;8.80;;;8.30;;
2486;SDS011;1254;49.144;8.212;2023-02-20T14:30:06;9.03;;;8.13;;
2486;SDS011;1254;49.144;8.212;2023-02-20T14:32:34;8.43;;;7.80;;
2486;SDS011;1254;49.144;8.212;2023-02-20T14:35:05;8.90;;;8.17;;
2486;SDS011;1254;49.144;8.212;2023-02-20T14:37:37;10.13;;;8.07;;
2486;SDS011;1254;49.144;8.212;2023-02-20T14:40:10;8.50;;;7.90;;
2486;SDS011;1254;49.144;8.212;2023-02-20T14:42:41;8.07;;;7.47;;
2486;SDS011;1254;49.144;8.212;2023-02-20T14:45:13;7.80;;;7.40;;
2486;SDS011;1254;49.144;8.212;2023-02-20T14:47:48;10.40;;;7.93;;
2486;SDS011;1254;49.144;8.212;2023-02-20T14:50:19;9.67;;;8.70;;
2486;SDS011;1254;49.144;8.212;2023-02-20T14:52:59;7.97;;;7.57;;
2486;SDS011;1254;49.144;8.212;2023-02-20T14:55:27;8.53;;;8.00;;
2486;SDS011;1254;49.144;8.212;2023-02-20T14:57:56;8.70;;;8.10;;
2486;SDS011;1254;49.144;8.212;2023-02-20T15:00:32;8.90;;;8.13;;
2486;SDS011;1254;49.144;8.212;2023-02-20T15:03:00;9.00;;;8.40;;
2486;SDS011;1254;49.144;8.212;2023-02-20T15:05:33;8.80;;;7.90;;
2486;SDS011;1254;49.144;8.212;2023-02-20T15:08:10;8.60;;;8.10;;
2486;SDS011;1254;49.144;8.212;2023-02-20T15:10:43;9.83;;;8.83;;
2486;SDS011;1254;49.144;8.212;2023-02-20T15:13:14;9.73;;;9.03;;
2486;SDS011;1254;49.144;8.212;2023-02-20T15:15:45;8.30;;;7.50;;
2486;SDS011;1254;49.144;8.212;2023-02-20T15:18:14;9.20;;;8.43;;
2486;SDS011;1254;49.144;8.212;2023-02-20T15:20:43;8.30;;;7.70;;
2486;SDS011;1254;49.144;8.212;2023-02-20T15:23:20;9.13;;;8.53;;
2486;SDS011;1254;49.144;8.212;2023-02-20T15:25:50;9.10;;;8.37;;
2486;SDS011;1254;49.144;8.212;2023-02-20T15:28:25;8.20;;;7.70;;
2486;SDS011;1254;49.144;8.212;2023-02-20T15:31:03;8.60;;;8.00;;
2486;SDS011;1254;49.144;8.212;2023-02-20T15:33:32;9.73;;;8.83;;
2486;SDS011;1254;49.144;8.212;2023-02-20T15:36:01;8.77;;;8.20;;
2486;SDS011;1254;49.144;8.212;2023-02-20T15:38:30;8.93;;;8.43;;
2486;SDS011;1254;49.144;8.212;2023-02-20T15:40:59;9.77;;;9.13;;
2486;SDS011;1254;49.144;8.212;2023-02-20T15:43:27;9.03;;;8.27;;
2486;SDS011;1254;49.144;8.212;2023-02-20T15:45:57;8.10;;;7.60;;
2486;SDS011;1254;49.144;8.212;2023-02-20T15:48:27;8.40;;;7.80;;
2486;SDS011;1254;49.144;8.212;2023-02-20T15:50:55;10.40;;;8.17;;
2486;SDS011;1254;49.144;8.212;2023-02-20T15:53:24;9.43;;;8.40;;
2486;SDS011;1254;49.144;8.212;2023-02-20T15:55:53;8.70;;;8.10;;
2486;SDS011;1254;49.144;8.212;2023-02-20T15:58:22;9.00;;;8.17;;
2486;SDS011;1254;49.144;8.212;2023-02-20T16:00:51;7.90;;;7.30;;
2486;SDS011;1254;49.144;8.212;2023-02-20T16:03:20;11.40;;;8.67;;